sensor_id;sensor_type;location;lat;lon;timestamp;pressure;altitude;pressure_sealevel;temperature;humidity
63306;BME280;50735;52.060;1.248;2024-03-29T00:00:15;98029.74;;;5.75;60.92
63306;BME280;50735;52.060;1.248;2024-03-29T00:02:48;98047.96;;;5.76;60.72
63306;BME280;50735;52.060;1.248;2024-03-29T00:05:19;98040.42;;;5.56;60.91
63306;BME280;50735;52.060;1.248;2024-03-29T00:07:51;98046.24;;;5.91;60.89
63306;BME280;50735;52.060;1.248;2024-03-29T00:10:23;98044.47;;;6.10;60.78
63306;BME280;50735;52.060;1.248;2024-03-29T00:12:55;98045.06;;;6.08;61.32
63306;BME280;50735;52.060;1.248;2024-03-29T00:15:27;98081.12;;;5.78;61.61
63306;BME280;50735;52.060;1.248;2024-03-29T00:17:58;98060.27;;;5.45;62.66
63306;BME280;50735;52.060;1.248;2024-03-29T00:20:30;98056.21;;;5.73;63.15
63306;BME280;50735;52.060;1.248;2024-03-29T00:23:03;98065.32;;;5.60;63.77
63306;BME280;50735;52.060;1.248;2024-03-29T00:25:35;98062.28;;;5.68;64.67
63306;BME280;50735;52.060;1.248;2024-03-29T00:28:07;98073.73;;;5.61;65.80
63306;BME280;50735;52.060;1.248;2024-03-29T00:30:39;98069.64;;;5.60;66.43
63306;BME280;50735;52.060;1.248;2024-03-29T00:33:10;98071.36;;;5.55;66.59
63306;BME280;50735;52.060;1.248;2024-03-29T00:35:42;98082.31;;;5.62;66.86
63306;BME280;50735;52.060;1.248;2024-03-29T00:38:14;98075.64;;;5.53;66.89
63306;BME280;50735;52.060;1.248;2024-03-29T00:40:46;98083.54;;;5.62;66.85
63306;BME280;50735;52.060;1.248;2024-03-29T00:43:18;98088.73;;;5.63;67.17
63306;BME280;50735;52.060;1.248;2024-03-29T00:45:49;98088.55;;;5.48;67.03
63306;BME280;50735;52.060;1.248;2024-03-29T00:48:21;98090.87;;;5.66;66.54
63306;BME280;50735;52.060;1.248;2024-03-29T00:50:53;98094.40;;;5.68;66.44
63306;BME280;50735;52.060;1.248;2024-03-29T00:53:25;98103.93;;;5.70;66.26
63306;BME280;50735;52.060;1.248;2024-03-29T00:55:56;98112.27;;;5.77;66.36
63306;BME280;50735;52.060;1.248;2024-03-29T00:58:29;98120.13;;;5.87;65.90
63306;BME280;50735;52.060;1.248;2024-03-29T01:01:00;98124.53;;;5.97;65.57
63306;BME280;50735;52.060;1.248;2024-03-29T01:03:32;98110.17;;;5.71;65.98
63306;BME280;50735;52.060;1.248;2024-03-29T01:06:04;98112.37;;;6.11;65.61
63306;BME280;50735;52.060;1.248;2024-03-29T01:08:36;98119.33;;;5.80;66.02
63306;BME280;50735;52.060;1.248;2024-03-29T01:11:08;98123.35;;;5.65;66.41
63306;BME280;50735;52.060;1.248;2024-03-29T01:13:39;98116.23;;;5.47;66.45
63306;BME280;50735;52.060;1.248;2024-03-29T01:16:11;98124.82;;;5.56;66.76
63306;BME280;50735;52.060;1.248;2024-03-29T01:18:43;98125.08;;;5.88;66.79
63306;BME280;50735;52.060;1.248;2024-03-29T01:21:15;98131.48;;;5.48;66.78
63306;BME280;50735;52.060;1.248;2024-03-29T01:23:47;98131.95;;;5.50;66.78
63306;BME280;50735;52.060;1.248;2024-03-29T01:26:19;98136.22;;;5.72;66.45
63306;BME280;50735;52.060;1.248;2024-03-29T01:28:50;98133.79;;;5.73;66.46
63306;BME280;50735;52.060;1.248;2024-03-29T01:31:22;98135.70;;;5.47;66.56
63306;BME280;50735;52.060;1.248;2024-03-29T01:33:54;98141.76;;;5.76;66.20
63306;BME280;50735;52.060;1.248;2024-03-29T01:36:26;98144.32;;;5.74;65.44
63306;BME280;50735;52.060;1.248;2024-03-29T01:38:57;98144.86;;;5.54;64.82
63306;BME280;50735;52.060;1.248;2024-03-29T01:41:29;98144.90;;;5.73;65.28
63306;BME280;50735;52.060;1.248;2024-03-29T01:44:01;98149.47;;;5.24;65.42
63306;BME280;50735;52.060;1.248;2024-03-29T01:46:35;98145.97;;;5.33;65.37
63306;BME280;50735;52.060;1.248;2024-03-29T01:49:07;98152.38;;;5.56;65.03
63306;BME280;50735;52.060;1.248;2024-03-29T01:51:40;98150.82;;;5.67;64.77
63306;BME280;50735;52.060;1.248;2024-03-29T01:54:12;98157.46;;;5.15;64.29
63306;BME280;50735;52.060;1.248;2024-03-29T01:56:44;98155.48;;;5.59;64.35
63306;BME280;50735;52.060;1.248;2024-03-29T01:59:17;98164.10;;;5.42;64.12
63306;BME280;50735;52.060;1.248;2024-03-29T02:01:50;98170.20;;;5.39;64.51
63306;BME280;50735;52.060;1.248;2024-03-29T02:04:22;98176.41;;;5.31;64.01
63306;BME280;50735;52.060;1.248;2024-03-29T02:06:54;98182.54;;;5.59;63.88
63306;BME280;50735;52.060;1.248;2024-03-29T02:09:26;98190.66;;;5.45;63.66
63306;BME280;50735;52.060;1.248;2024-03-29T02:11:58;98194.65;;;5.38;63.56
63306;BME280;50735;52.060;1.248;2024-03-29T02:14:30;98192.96;;;5.10;63.69
63306;BME280;50735;52.060;1.248;2024-03-29T02:17:02;98196.12;;;5.12;63.69
63306;BME280;50735;52.060;1.248;2024-03-29T02:19:34;98193.37;;;5.09;63.80
63306;BME280;50735;52.060;1.248;2024-03-29T02:22:07;98209.09;;;5.14;64.53
63306;BME280;50735;52.060;1.248;2024-03-29T02:24:39;98206.02;;;5.07;64.23
63306;BME280;50735;52.060;1.248;2024-03-29T02:27:11;98203.13;;;5.45;64.00
63306;BME280;50735;52.060;1.248;2024-03-29T02:29:43;98206.42;;;5.35;63.33
63306;BME280;50735;52.060;1.248;2024-03-29T02:32:15;98212.27;;;5.30;63.52
63306;BME280;50735;52.060;1.248;2024-03-29T02:34:47;98210.24;;;5.40;63.82
63306;BME280;50735;52.060;1.248;2024-03-29T02:37:19;98210.77;;;5.48;63.53
63306;BME280;50735;52.060;1.248;2024-03-29T02:39:51;98212.87;;;5.39;64.29
63306;BME280;50735;52.060;1.248;2024-03-29T02:42:23;98216.99;;;5.01;64.18
63306;BME280;50735;52.060;1.248;2024-03-29T02:44:55;98220.00;;;5.10;64.29
63306;BME280;50735;52.060;1.248;2024-03-29T02:47:26;98226.23;;;5.11;64.68
63306;BME280;50735;52.060;1.248;2024-03-29T02:49:58;98224.50;;;4.93;65.09
63306;BME280;50735;52.060;1.248;2024-03-29T02:52:30;98223.79;;;5.16;65.42
63306;BME280;50735;52.060;1.248;2024-03-29T02:55:03;98225.51;;;5.06;65.36
63306;BME280;50735;52.060;1.248;2024-03-29T02:57:35;98225.39;;;5.34;65.04
63306;BME280;50735;52.060;1.248;2024-03-29T03:00:08;98231.58;;;5.44;65.13
63306;BME280;50735;52.060;1.248;2024-03-29T03:02:40;98234.55;;;5.40;64.91
63306;BME280;50735;52.060;1.248;2024-03-29T03:05:12;98229.50;;;5.83;64.50
63306;BME280;50735;52.060;1.248;2024-03-29T03:07:44;98229.77;;;5.87;64.27
63306;BME280;50735;52.060;1.248;2024-03-29T03:10:16;98229.92;;;5.49;65.01
63306;BME280;50735;52.060;1.248;2024-03-29T03:12:48;98237.64;;;5.46;65.41
63306;BME280;50735;52.060;1.248;2024-03-29T03:15:20;98237.43;;;5.37;66.17
63306;BME280;50735;52.060;1.248;2024-03-29T03:17:51;98240.61;;;5.33;66.58
63306;BME280;50735;52.060;1.248;2024-03-29T03:20:23;98245.52;;;5.67;66.46
63306;BME280;50735;52.060;1.248;2024-03-29T03:22:55;98247.98;;;5.44;67.13
63306;BME280;50735;52.060;1.248;2024-03-29T03:25:27;98243.71;;;5.48;66.96
63306;BME280;50735;52.060;1.248;2024-03-29T03:27:59;98242.53;;;5.55;67.07
63306;BME280;50735;52.060;1.248;2024-03-29T03:30:31;98245.27;;;5.44;67.52
63306;BME280;50735;52.060;1.248;2024-03-29T03:33:03;98244.94;;;5.25;68.09
63306;BME280;50735;52.060;1.248;2024-03-29T03:35:35;98247.65;;;5.34;68.05
63306;BME280;50735;52.060;1.248;2024-03-29T03:38:07;98254.40;;;5.37;68.00
63306;BME280;50735;52.060;1.248;2024-03-29T03:40:38;98254.17;;;5.35;68.22
63306;BME280;50735;52.060;1.248;2024-03-29T03:43:11;98258.44;;;5.41;67.87
63306;BME280;50735;52.060;1.248;2024-03-29T03:45:43;98260.21;;;5.30;68.29
63306;BME280;50735;52.060;1.248;2024-03-29T03:48:16;98268.00;;;5.31;68.62
63306;BME280;50735;52.060;1.248;2024-03-29T03:50:47;98268.39;;;5.36;68.43
63306;BME280;50735;52.060;1.248;2024-03-29T03:53:19;98271.08;;;5.46;68.13
63306;BME280;50735;52.060;1.248;2024-03-29T03:55:51;98271.95;;;5.51;67.96
63306;BME280;50735;52.060;1.248;2024-03-29T03:58:23;98278.49;;;5.71;67.89
63306;BME280;50735;52.060;1.248;2024-03-29T04:00:55;98280.34;;;5.25;68.35
63306;BME280;50735;52.060;1.248;2024-03-29T04:03:27;98279.44;;;5.54;67.77
63306;BME280;50735;52.060;1.248;2024-03-29T04:06:03;98287.61;;;5.37;67.10
63306;BME280;50735;52.060;1.248;2024-03-29T04:08:34;98285.88;;;5.51;66.98
63306;BME280;50735;52.060;1.248;2024-03-29T04:11:06;98281.52;;;5.28;67.25
63306;BME280;50735;52.060;1.248;2024-03-29T04:13:38;98285.01;;;5.17;66.11
63306;BME280;50735;52.060;1.248;2024-03-29T04:16:10;98284.33;;;5.13;66.44
63306;BME280;50735;52.060;1.248;2024-03-29T04:18:42;98286.34;;;5.37;65.92
63306;BME280;50735;52.060;1.248;2024-03-29T04:21:14;98294.43;;;5.19;65.55
63306;BME280;50735;52.060;1.248;2024-03-29T04:23:45;98294.28;;;5.39;65.12
63306;BME280;50735;52.060;1.248;2024-03-29T04:26:17;98289.92;;;5.28;65.43
63306;BME280;50735;52.060;1.248;2024-03-29T04:28:49;98303.10;;;5.09;65.83
63306;BME280;50735;52.060;1.248;2024-03-29T04:31:20;98291.94;;;5.10;65.84
63306;BME280;50735;52.060;1.248;2024-03-29T04:33:52;98295.15;;;5.06;66.20
63306;BME280;50735;52.060;1.248;2024-03-29T04:36:24;98288.78;;;5.12;65.46
63306;BME280;50735;52.060;1.248;2024-03-29T04:38:57;98285.47;;;4.87;65.18
63306;BME280;50735;52.060;1.248;2024-03-29T04:41:28;98291.79;;;4.93;65.70
63306;BME280;50735;52.060;1.248;2024-03-29T04:44:00;98288.30;;;5.11;65.22
63306;BME280;50735;52.060;1.248;2024-03-29T04:46:32;98294.54;;;5.20;64.84
63306;BME280;50735;52.060;1.248;2024-03-29T04:49:04;98294.32;;;5.21;64.60
63306;BME280;50735;52.060;1.248;2024-03-29T04:51:36;98292.51;;;5.27;64.76
63306;BME280;50735;52.060;1.248;2024-03-29T04:54:08;98288.92;;;5.29;65.19
63306;BME280;50735;52.060;1.248;2024-03-29T04:56:39;98302.37;;;5.14;65.16
63306;BME280;50735;52.060;1.248;2024-03-29T04:59:11;98297.36;;;5.16;64.92
63306;BME280;50735;52.060;1.248;2024-03-29T05:01:43;98308.78;;;5.05;65.17
63306;BME280;50735;52.060;1.248;2024-03-29T05:04:15;98312.64;;;5.04;65.56
63306;BME280;50735;52.060;1.248;2024-03-29T05:06:47;98315.42;;;4.88;65.95
63306;BME280;50735;52.060;1.248;2024-03-29T05:09:19;98311.80;;;4.83;66.21
63306;BME280;50735;52.060;1.248;2024-03-29T05:11:51;98311.18;;;4.92;65.97
63306;BME280;50735;52.060;1.248;2024-03-29T05:14:23;98312.06;;;4.92;66.07
63306;BME280;50735;52.060;1.248;2024-03-29T05:16:54;98315.90;;;4.83;66.48
63306;BME280;50735;52.060;1.248;2024-03-29T05:19:26;98314.76;;;4.74;66.71
63306;BME280;50735;52.060;1.248;2024-03-29T05:21:58;98319.46;;;4.85;66.68
63306;BME280;50735;52.060;1.248;2024-03-29T05:24:30;98328.07;;;4.91;66.55
63306;BME280;50735;52.060;1.248;2024-03-29T05:27:02;98337.24;;;4.87;66.60
63306;BME280;50735;52.060;1.248;2024-03-29T05:29:33;98332.93;;;4.86;66.83
63306;BME280;50735;52.060;1.248;2024-03-29T05:32:06;98334.55;;;4.68;66.71
63306;BME280;50735;52.060;1.248;2024-03-29T05:34:38;98335.43;;;4.73;67.02
63306;BME280;50735;52.060;1.248;2024-03-29T05:37:10;98336.97;;;4.83;67.53
63306;BME280;50735;52.060;1.248;2024-03-29T05:39:42;98333.28;;;4.81;67.07
63306;BME280;50735;52.060;1.248;2024-03-29T05:42:13;98345.48;;;4.73;67.18
63306;BME280;50735;52.060;1.248;2024-03-29T05:44:45;98343.63;;;4.53;67.07
63306;BME280;50735;52.060;1.248;2024-03-29T05:47:17;98340.35;;;4.86;66.63
63306;BME280;50735;52.060;1.248;2024-03-29T05:49:50;98343.18;;;5.00;66.34
63306;BME280;50735;52.060;1.248;2024-03-29T05:52:22;98352.75;;;4.91;66.30
63306;BME280;50735;52.060;1.248;2024-03-29T05:54:54;98352.47;;;4.91;66.76
63306;BME280;50735;52.060;1.248;2024-03-29T05:57:26;98358.54;;;4.99;66.43
63306;BME280;50735;52.060;1.248;2024-03-29T05:59:58;98359.53;;;5.15;67.46
63306;BME280;50735;52.060;1.248;2024-03-29T06:02:29;98359.01;;;5.28;65.40
63306;BME280;50735;52.060;1.248;2024-03-29T06:05:01;98366.14;;;4.85;65.74
63306;BME280;50735;52.060;1.248;2024-03-29T06:07:33;98361.02;;;4.91;66.28
63306;BME280;50735;52.060;1.248;2024-03-29T06:10:05;98360.55;;;5.10;66.00
63306;BME280;50735;52.060;1.248;2024-03-29T06:12:38;98361.59;;;4.74;65.77
63306;BME280;50735;52.060;1.248;2024-03-29T06:15:09;98357.97;;;4.73;66.06
63306;BME280;50735;52.060;1.248;2024-03-29T06:17:41;98363.70;;;5.07;65.54
63306;BME280;50735;52.060;1.248;2024-03-29T06:20:13;98362.20;;;5.02;65.64
63306;BME280;50735;52.060;1.248;2024-03-29T06:22:45;98367.92;;;4.93;65.58
63306;BME280;50735;52.060;1.248;2024-03-29T06:25:16;98368.08;;;4.85;65.48
63306;BME280;50735;52.060;1.248;2024-03-29T06:27:48;98366.07;;;5.35;64.81
63306;BME280;50735;52.060;1.248;2024-03-29T06:30:20;98373.31;;;5.37;64.22
63306;BME280;50735;52.060;1.248;2024-03-29T06:32:52;98369.66;;;5.28;64.35
63306;BME280;50735;52.060;1.248;2024-03-29T06:35:24;98371.24;;;5.27;64.38
63306;BME280;50735;52.060;1.248;2024-03-29T06:37:56;98385.25;;;5.18;64.36
63306;BME280;50735;52.060;1.248;2024-03-29T06:40:28;98377.76;;;4.99;64.32
63306;BME280;50735;52.060;1.248;2024-03-29T06:43:00;98386.99;;;5.30;64.59
63306;BME280;50735;52.060;1.248;2024-03-29T06:45:32;98395.19;;;5.27;64.35
63306;BME280;50735;52.060;1.248;2024-03-29T06:48:04;98400.25;;;5.38;63.94
63306;BME280;50735;52.060;1.248;2024-03-29T06:50:37;98402.34;;;5.42;63.85
63306;BME280;50735;52.060;1.248;2024-03-29T06:53:08;98407.31;;;5.20;64.28
63306;BME280;50735;52.060;1.248;2024-03-29T06:55:41;98409.37;;;5.19;64.07
63306;BME280;50735;52.060;1.248;2024-03-29T06:58:12;98407.06;;;5.58;64.04
63306;BME280;50735;52.060;1.248;2024-03-29T07:00:46;98419.14;;;5.52;63.55
63306;BME280;50735;52.060;1.248;2024-03-29T07:03:18;98416.55;;;5.66;63.70
63306;BME280;50735;52.060;1.248;2024-03-29T07:05:50;98419.85;;;5.40;63.10
63306;BME280;50735;52.060;1.248;2024-03-29T07:08:22;98415.75;;;5.72;63.84
63306;BME280;50735;52.060;1.248;2024-03-29T07:10:58;98425.66;;;5.89;63.78
63306;BME280;50735;52.060;1.248;2024-03-29T07:13:30;98430.11;;;5.56;63.66
63306;BME280;50735;52.060;1.248;2024-03-29T07:16:04;98432.02;;;5.72;63.21
63306;BME280;50735;52.060;1.248;2024-03-29T07:18:36;98435.15;;;5.87;63.50
63306;BME280;50735;52.060;1.248;2024-03-29T07:21:07;98440.73;;;5.94;63.36
63306;BME280;50735;52.060;1.248;2024-03-29T07:23:39;98438.54;;;5.64;63.70
63306;BME280;50735;52.060;1.248;2024-03-29T07:26:11;98439.96;;;6.01;63.42
63306;BME280;50735;52.060;1.248;2024-03-29T07:28:43;98444.52;;;6.14;63.23
63306;BME280;50735;52.060;1.248;2024-03-29T07:31:14;98447.30;;;6.20;62.99
63306;BME280;50735;52.060;1.248;2024-03-29T07:33:46;98453.54;;;5.93;63.16
63306;BME280;50735;52.060;1.248;2024-03-29T07:36:18;98452.68;;;5.79;62.97
63306;BME280;50735;52.060;1.248;2024-03-29T07:38:50;98458.57;;;5.75;62.95
63306;BME280;50735;52.060;1.248;2024-03-29T07:41:22;98462.57;;;5.95;62.67
63306;BME280;50735;52.060;1.248;2024-03-29T07:43:55;98457.92;;;5.89;62.44
63306;BME280;50735;52.060;1.248;2024-03-29T07:46:29;98461.56;;;5.66;63.30
63306;BME280;50735;52.060;1.248;2024-03-29T07:49:01;98466.17;;;5.61;63.46
63306;BME280;50735;52.060;1.248;2024-03-29T07:51:33;98464.77;;;5.62;63.16
63306;BME280;50735;52.060;1.248;2024-03-29T07:54:04;98460.27;;;5.65;63.20
63306;BME280;50735;52.060;1.248;2024-03-29T07:56:36;98468.08;;;5.69;63.78
63306;BME280;50735;52.060;1.248;2024-03-29T07:59:08;98460.18;;;5.79;63.45
63306;BME280;50735;52.060;1.248;2024-03-29T08:01:40;98462.23;;;6.04;63.19
63306;BME280;50735;52.060;1.248;2024-03-29T08:04:12;98464.63;;;6.25;62.92
63306;BME280;50735;52.060;1.248;2024-03-29T08:06:44;98466.81;;;6.17;62.40
63306;BME280;50735;52.060;1.248;2024-03-29T08:09:16;98459.22;;;6.22;62.35
63306;BME280;50735;52.060;1.248;2024-03-29T08:11:48;98467.30;;;6.40;62.40
63306;BME280;50735;52.060;1.248;2024-03-29T08:14:19;98466.28;;;6.17;60.90
63306;BME280;50735;52.060;1.248;2024-03-29T08:16:51;98468.62;;;6.21;61.82
63306;BME280;50735;52.060;1.248;2024-03-29T08:19:23;98473.03;;;5.99;61.93
63306;BME280;50735;52.060;1.248;2024-03-29T08:21:55;98476.30;;;6.22;61.54
63306;BME280;50735;52.060;1.248;2024-03-29T08:24:27;98485.89;;;6.17;61.87
63306;BME280;50735;52.060;1.248;2024-03-29T08:26:59;98483.62;;;6.18;61.67
63306;BME280;50735;52.060;1.248;2024-03-29T08:29:31;98493.37;;;6.11;61.37
63306;BME280;50735;52.060;1.248;2024-03-29T08:32:03;98498.13;;;6.22;60.71
63306;BME280;50735;52.060;1.248;2024-03-29T08:34:35;98500.97;;;6.88;60.34
63306;BME280;50735;52.060;1.248;2024-03-29T08:37:07;98493.19;;;6.80;59.25
63306;BME280;50735;52.060;1.248;2024-03-29T08:39:39;98505.12;;;6.53;59.76
63306;BME280;50735;52.060;1.248;2024-03-29T08:42:11;98504.73;;;6.97;59.33
63306;BME280;50735;52.060;1.248;2024-03-29T08:44:43;98500.93;;;6.69;59.81
63306;BME280;50735;52.060;1.248;2024-03-29T08:47:14;98506.77;;;6.30;59.39
63306;BME280;50735;52.060;1.248;2024-03-29T08:49:46;98499.10;;;6.51;60.03
63306;BME280;50735;52.060;1.248;2024-03-29T08:52:18;98505.66;;;6.27;59.99
63306;BME280;50735;52.060;1.248;2024-03-29T08:54:50;98503.55;;;6.84;60.12
63306;BME280;50735;52.060;1.248;2024-03-29T08:57:22;98503.81;;;6.42;60.65
63306;BME280;50735;52.060;1.248;2024-03-29T08:59:54;98506.46;;;6.96;60.11
63306;BME280;50735;52.060;1.248;2024-03-29T09:02:25;98495.44;;;6.97;60.02
63306;BME280;50735;52.060;1.248;2024-03-29T09:04:57;98493.75;;;7.43;59.09
63306;BME280;50735;52.060;1.248;2024-03-29T09:07:29;98492.91;;;7.44;58.26
63306;BME280;50735;52.060;1.248;2024-03-29T09:10:00;98488.10;;;7.65;57.48
63306;BME280;50735;52.060;1.248;2024-03-29T09:12:32;98497.26;;;7.81;57.24
63306;BME280;50735;52.060;1.248;2024-03-29T09:15:05;98496.58;;;8.22;56.14
63306;BME280;50735;52.060;1.248;2024-03-29T09:17:38;98503.60;;;8.50;54.91
63306;BME280;50735;52.060;1.248;2024-03-29T09:20:10;98529.11;;;8.40;54.21
63306;BME280;50735;52.060;1.248;2024-03-29T09:22:42;98510.25;;;8.49;54.30
63306;BME280;50735;52.060;1.248;2024-03-29T09:25:14;98517.18;;;8.21;54.07
63306;BME280;50735;52.060;1.248;2024-03-29T09:27:46;98515.12;;;7.90;54.04
63306;BME280;50735;52.060;1.248;2024-03-29T09:30:18;98520.70;;;7.78;54.93
63306;BME280;50735;52.060;1.248;2024-03-29T09:32:50;98523.82;;;7.67;55.79
63306;BME280;50735;52.060;1.248;2024-03-29T09:35:22;98514.49;;;7.51;55.66
63306;BME280;50735;52.060;1.248;2024-03-29T09:37:53;98515.80;;;7.50;55.78
63306;BME280;50735;52.060;1.248;2024-03-29T09:40:26;98515.26;;;7.70;56.01
63306;BME280;50735;52.060;1.248;2024-03-29T09:43:00;98515.56;;;7.52;56.92
63306;BME280;50735;52.060;1.248;2024-03-29T09:45:34;98509.54;;;7.65;56.19
63306;BME280;50735;52.060;1.248;2024-03-29T09:48:08;98522.29;;;7.65;56.40
63306;BME280;50735;52.060;1.248;2024-03-29T09:50:40;98525.80;;;8.02;56.08
63306;BME280;50735;52.060;1.248;2024-03-29T09:53:12;98513.89;;;8.22;54.74
63306;BME280;50735;52.060;1.248;2024-03-29T09:55:44;98514.13;;;8.60;54.32
63306;BME280;50735;52.060;1.248;2024-03-29T09:58:16;98516.50;;;8.44;53.70
63306;BME280;50735;52.060;1.248;2024-03-29T10:00:47;98513.41;;;8.50;54.10
63306;BME280;50735;52.060;1.248;2024-03-29T10:03:19;98513.31;;;8.32;54.72
63306;BME280;50735;52.060;1.248;2024-03-29T10:05:52;98511.82;;;8.59;54.47
63306;BME280;50735;52.060;1.248;2024-03-29T10:08:25;98518.98;;;8.69;53.56
63306;BME280;50735;52.060;1.248;2024-03-29T10:10:58;98513.15;;;8.72;54.07
63306;BME280;50735;52.060;1.248;2024-03-29T10:13:30;98513.73;;;8.63;54.07
63306;BME280;50735;52.060;1.248;2024-03-29T10:16:02;98510.79;;;8.39;54.18
63306;BME280;50735;52.060;1.248;2024-03-29T10:18:34;98515.42;;;8.47;54.77
63306;BME280;50735;52.060;1.248;2024-03-29T10:21:07;98518.40;;;8.58;54.88
63306;BME280;50735;52.060;1.248;2024-03-29T10:23:39;98526.74;;;8.46;54.73
63306;BME280;50735;52.060;1.248;2024-03-29T10:26:11;98523.01;;;8.60;54.71
63306;BME280;50735;52.060;1.248;2024-03-29T10:28:43;98521.52;;;8.53;54.29
63306;BME280;50735;52.060;1.248;2024-03-29T10:31:17;98518.25;;;8.62;54.81
63306;BME280;50735;52.060;1.248;2024-03-29T10:33:49;98520.40;;;9.02;53.87
63306;BME280;50735;52.060;1.248;2024-03-29T10:36:21;98516.81;;;9.17;53.82
63306;BME280;50735;52.060;1.248;2024-03-29T10:38:53;98523.61;;;8.66;53.67
63306;BME280;50735;52.060;1.248;2024-03-29T10:41:25;98526.97;;;8.66;54.18
63306;BME280;50735;52.060;1.248;2024-03-29T10:43:59;98525.64;;;8.46;53.45
63306;BME280;50735;52.060;1.248;2024-03-29T10:46:34;98516.08;;;8.57;54.32
63306;BME280;50735;52.060;1.248;2024-03-29T10:49:10;98512.59;;;8.55;54.77
63306;BME280;50735;52.060;1.248;2024-03-29T10:51:42;98512.35;;;8.32;54.50
63306;BME280;50735;52.060;1.248;2024-03-29T10:54:14;98509.52;;;8.51;54.59
63306;BME280;50735;52.060;1.248;2024-03-29T10:56:48;98515.21;;;9.01;54.34
63306;BME280;50735;52.060;1.248;2024-03-29T10:59:30;98508.62;;;9.16;53.08
63306;BME280;50735;52.060;1.248;2024-03-29T11:02:12;98513.67;;;9.19;52.68
63306;BME280;50735;52.060;1.248;2024-03-29T11:04:45;98505.81;;;8.68;53.26
63306;BME280;50735;52.060;1.248;2024-03-29T11:07:20;98510.38;;;8.66;53.81
63306;BME280;50735;52.060;1.248;2024-03-29T11:09:57;98520.23;;;8.34;54.15
63306;BME280;50735;52.060;1.248;2024-03-29T11:12:35;98516.44;;;8.37;54.76
63306;BME280;50735;52.060;1.248;2024-03-29T11:15:17;98516.17;;;8.24;54.64
63306;BME280;50735;52.060;1.248;2024-03-29T11:17:52;98524.48;;;8.32;54.84
63306;BME280;50735;52.060;1.248;2024-03-29T11:20:26;98523.68;;;8.52;54.57
63306;BME280;50735;52.060;1.248;2024-03-29T11:23:02;98514.15;;;8.76;54.66
63306;BME280;50735;52.060;1.248;2024-03-29T11:25:38;98521.15;;;9.45;53.70
63306;BME280;50735;52.060;1.248;2024-03-29T11:28:12;98532.21;;;10.04;52.07
63306;BME280;50735;52.060;1.248;2024-03-29T11:30:46;98535.78;;;10.03;52.19
63306;BME280;50735;52.060;1.248;2024-03-29T11:33:27;98541.03;;;10.32;52.13
63306;BME280;50735;52.060;1.248;2024-03-29T11:36:00;98530.47;;;10.80;51.71
63306;BME280;50735;52.060;1.248;2024-03-29T11:38:37;98526.84;;;11.59;50.41
63306;BME280;50735;52.060;1.248;2024-03-29T11:41:11;98532.44;;;10.78;50.05
63306;BME280;50735;52.060;1.248;2024-03-29T11:43:43;98540.05;;;10.77;50.70
63306;BME280;50735;52.060;1.248;2024-03-29T11:46:15;98546.38;;;10.06;52.61
63306;BME280;50735;52.060;1.248;2024-03-29T11:48:47;98543.69;;;9.89;52.88
63306;BME280;50735;52.060;1.248;2024-03-29T11:51:21;98551.51;;;9.56;56.71
63306;BME280;50735;52.060;1.248;2024-03-29T11:53:53;98569.88;;;9.20;57.63
63306;BME280;50735;52.060;1.248;2024-03-29T11:56:25;98581.50;;;8.70;60.02
63306;BME280;50735;52.060;1.248;2024-03-29T11:58:58;98573.44;;;8.15;61.92
63306;BME280;50735;52.060;1.248;2024-03-29T12:01:30;98575.10;;;7.91;62.21
63306;BME280;50735;52.060;1.248;2024-03-29T12:04:01;98571.19;;;8.53;64.96
63306;BME280;50735;52.060;1.248;2024-03-29T12:06:33;98571.13;;;8.64;64.49
63306;BME280;50735;52.060;1.248;2024-03-29T12:09:05;98568.95;;;8.97;63.15
63306;BME280;50735;52.060;1.248;2024-03-29T12:11:37;98572.77;;;9.56;64.43
63306;BME280;50735;52.060;1.248;2024-03-29T12:14:11;98568.56;;;9.65;62.28
63306;BME280;50735;52.060;1.248;2024-03-29T12:16:44;98567.41;;;9.92;61.14
63306;BME280;50735;52.060;1.248;2024-03-29T12:19:24;98572.11;;;9.77;60.68
63306;BME280;50735;52.060;1.248;2024-03-29T12:21:56;98563.23;;;9.77;59.25
63306;BME280;50735;52.060;1.248;2024-03-29T12:24:27;98569.84;;;9.83;59.25
63306;BME280;50735;52.060;1.248;2024-03-29T12:27:00;98564.57;;;9.69;59.27
63306;BME280;50735;52.060;1.248;2024-03-29T12:29:32;98570.25;;;9.39;59.36
63306;BME280;50735;52.060;1.248;2024-03-29T12:32:06;98561.59;;;9.46;57.98
63306;BME280;50735;52.060;1.248;2024-03-29T12:34:40;98566.08;;;9.19;58.33
63306;BME280;50735;52.060;1.248;2024-03-29T12:37:12;98563.42;;;9.41;58.29
63306;BME280;50735;52.060;1.248;2024-03-29T12:39:44;98570.09;;;9.43;58.45
63306;BME280;50735;52.060;1.248;2024-03-29T12:42:16;98575.58;;;8.90;58.02
63306;BME280;50735;52.060;1.248;2024-03-29T12:44:48;98571.23;;;8.88;57.98
63306;BME280;50735;52.060;1.248;2024-03-29T12:47:19;98576.04;;;8.93;57.07
63306;BME280;50735;52.060;1.248;2024-03-29T12:49:52;98579.47;;;8.96;57.54
63306;BME280;50735;52.060;1.248;2024-03-29T12:52:24;98590.90;;;8.96;57.29
63306;BME280;50735;52.060;1.248;2024-03-29T12:54:56;98586.40;;;9.45;57.51
63306;BME280;50735;52.060;1.248;2024-03-29T12:57:28;98587.16;;;10.07;55.52
63306;BME280;50735;52.060;1.248;2024-03-29T12:59:59;98584.78;;;10.43;53.71
63306;BME280;50735;52.060;1.248;2024-03-29T13:02:31;98580.06;;;10.38;53.28
63306;BME280;50735;52.060;1.248;2024-03-29T13:05:04;98583.70;;;10.32;53.71
63306;BME280;50735;52.060;1.248;2024-03-29T13:07:36;98594.26;;;10.73;53.28
63306;BME280;50735;52.060;1.248;2024-03-29T13:10:09;98586.65;;;10.99;51.61
63306;BME280;50735;52.060;1.248;2024-03-29T13:12:41;98618.70;;;10.91;50.93
63306;BME280;50735;52.060;1.248;2024-03-29T13:15:17;98605.81;;;10.89;51.18
63306;BME280;50735;52.060;1.248;2024-03-29T13:17:49;98611.87;;;10.35;50.90
63306;BME280;50735;52.060;1.248;2024-03-29T13:20:22;98609.91;;;10.25;50.68
63306;BME280;50735;52.060;1.248;2024-03-29T13:22:54;98610.59;;;10.11;51.39
63306;BME280;50735;52.060;1.248;2024-03-29T13:25:26;98618.58;;;9.74;52.33
63306;BME280;50735;52.060;1.248;2024-03-29T13:27:58;98611.41;;;9.54;53.46
63306;BME280;50735;52.060;1.248;2024-03-29T13:30:29;98615.14;;;9.64;53.97
63306;BME280;50735;52.060;1.248;2024-03-29T13:33:01;98612.00;;;9.54;53.59
63306;BME280;50735;52.060;1.248;2024-03-29T13:35:33;98614.63;;;9.99;53.96